createdAt,value
2022-07-26T00:04:41.683Z,61.3
2022-07-26T00:10:41.698Z,62.1
2022-07-26T00:16:41.758Z,62.5
2022-07-26T00:22:41.687Z,62.7
2022-07-26T00:28:41.683Z,63.6
2022-07-26T00:34:41.674Z,64.4
2022-07-26T00:40:41.708Z,65.3
2022-07-26T00:46:41.791Z,66.1
2022-07-26T00:52:41.707Z,66.7
2022-07-26T00:58:41.709Z,66.8
2022-07-26T01:04:41.701Z,66.5
2022-07-26T01:10:41.715Z,66.6
2022-07-26T01:16:41.825Z,66.6
2022-07-26T01:22:41.705Z,67.4
2022-07-26T01:28:41.708Z,68.3
2022-07-26T01:34:41.711Z,68.3
2022-07-26T01:40:41.700Z,68.6
2022-07-26T01:46:41.706Z,67.9
2022-07-26T01:52:41.696Z,67.7
2022-07-26T01:58:41.717Z,67.3
2022-07-26T02:04:41.699Z,67.8
2022-07-26T02:10:41.706Z,67.9
2022-07-26T02:16:41.711Z,68.2
2022-07-26T02:22:41.710Z,68.8
2022-07-26T02:28:41.712Z,70
2022-07-26T02:34:41.700Z,70.4
2022-07-26T02:40:41.730Z,71.9
2022-07-26T02:46:41.861Z,72.2
2022-07-26T02:52:41.709Z,73.2
2022-07-26T02:58:41.711Z,73.8
2022-07-26T03:04:41.716Z,75
2022-07-26T03:10:41.707Z,75.4
2022-07-26T03:16:41.737Z,75.6
2022-07-26T03:22:41.743Z,75.1
2022-07-26T03:28:41.729Z,74.6
2022-07-26T03:34:41.705Z,74.5
2022-07-26T03:40:41.733Z,73.1
2022-07-26T03:46:41.771Z,73.6
2022-07-26T03:52:41.731Z,73.1
2022-07-26T03:58:41.752Z,72
2022-07-26T04:04:41.716Z,72.6
2022-07-26T04:10:41.749Z,73.6
2022-07-26T04:16:43.810Z,72.2
2022-07-26T04:22:41.727Z,71.2
2022-07-26T04:28:41.733Z,72
2022-07-26T04:34:41.737Z,71.8
2022-07-26T04:40:41.739Z,72.8
2022-07-26T04:46:44.925Z,72.8
2022-07-26T04:52:41.737Z,73.4
2022-07-26T04:58:41.839Z,72.4
2022-07-26T05:04:41.753Z,72
2022-07-26T05:10:44.857Z,71.9
2022-07-26T05:16:44.042Z,72.6
2022-07-26T05:22:41.778Z,72.4
2022-07-26T05:28:41.801Z,73
2022-07-26T05:34:41.791Z,73.2
2022-07-26T05:40:44.784Z,73.3
2022-07-26T05:46:41.799Z,74.5
2022-07-26T05:52:41.791Z,73.5
2022-07-26T05:58:41.797Z,73.8
2022-07-26T06:04:41.866Z,74.9
2022-07-26T06:10:41.797Z,73.7
2022-07-26T06:16:41.925Z,73.8
2022-07-26T06:22:41.811Z,74.4
2022-07-26T06:28:41.802Z,73.9
2022-07-26T06:34:41.803Z,75.6
2022-07-26T06:40:41.813Z,76.3
2022-07-26T06:46:41.824Z,75.3
2022-07-26T06:52:41.807Z,72.7
2022-07-26T06:58:41.806Z,75.8
2022-07-26T07:04:41.980Z,81.7
2022-07-26T07:10:41.799Z,84.3
2022-07-26T07:16:41.939Z,83.1
2022-07-26T07:22:41.841Z,83.1
2022-07-26T07:28:41.820Z,79.4
2022-07-26T07:34:41.813Z,76.6
2022-07-26T07:40:41.818Z,75.3
2022-07-26T07:46:41.927Z,73
2022-07-26T07:52:41.829Z,73
2022-07-26T07:58:47.008Z,73.8
2022-07-26T08:04:41.905Z,72.7
2022-07-26T08:10:51.525Z,74.3
2022-07-26T08:16:41.901Z,74
2022-07-26T08:22:41.838Z,70.2
2022-07-26T08:28:48.831Z,67.1
2022-07-26T08:34:41.819Z,61.9
2022-07-26T08:40:41.854Z,61
2022-07-26T08:46:41.943Z,62.9
2022-07-26T08:52:41.818Z,61.2
2022-07-26T08:58:44.705Z,57.9
2022-07-26T09:04:44.767Z,58.6
2022-07-26T09:10:41.829Z,56
2022-07-26T09:16:41.890Z,54.1
2022-07-26T09:22:41.844Z,55.3
2022-07-26T09:28:45.093Z,56
2022-07-26T09:34:52.096Z,62.6
2022-07-26T09:40:41.846Z,62.6
2022-07-26T09:46:41.868Z,59
2022-07-26T09:52:41.840Z,56.3
2022-07-26T09:58:41.857Z,48.7
2022-07-26T10:04:41.876Z,43.4
2022-07-26T10:10:41.874Z,42.2
2022-07-26T10:16:41.862Z,44.7
2022-07-26T10:22:41.858Z,47.2
2022-07-26T10:28:41.860Z,49.8
2022-07-26T10:34:41.864Z,49.1
2022-07-26T10:40:41.861Z,47.8
2022-07-26T10:46:41.894Z,46.2
2022-07-26T10:52:41.870Z,52.1
2022-07-26T10:58:41.875Z,52.3
2022-07-26T11:04:41.870Z,53.5
2022-07-26T11:10:41.881Z,53.5
2022-07-26T11:16:41.876Z,51.5
2022-07-26T11:22:41.958Z,46.7
2022-07-26T11:28:41.893Z,47.8
2022-07-26T11:34:41.890Z,47
2022-07-26T11:40:41.901Z,49.7
2022-07-26T11:46:41.949Z,49.8
2022-07-26T11:52:41.885Z,48.7
2022-07-26T11:58:41.901Z,48.6
2022-07-26T12:04:42.123Z,47.6
2022-07-26T12:10:41.931Z,45.4
2022-07-26T12:16:41.909Z,44.9
2022-07-26T12:22:41.907Z,45.2
2022-07-26T12:28:41.911Z,46.1
2022-07-26T12:34:41.915Z,48.3
2022-07-26T12:40:41.911Z,51.4
2022-07-26T12:46:42.063Z,64.3
2022-07-26T12:52:41.918Z,71.2
2022-07-26T12:58:41.910Z,78.7
2022-07-26T13:04:41.978Z,79.9
2022-07-26T13:10:41.931Z,76.6
2022-07-26T13:16:42.001Z,71.5
2022-07-26T13:22:41.985Z,70.1
2022-07-26T13:28:41.927Z,68.9
2022-07-26T13:34:41.943Z,68.4
2022-07-26T13:40:41.926Z,61.7
2022-07-26T13:46:41.997Z,57.1
2022-07-26T13:52:41.920Z,61.6
2022-07-26T13:58:41.935Z,55.5
2022-07-26T14:04:41.928Z,58.1
2022-07-26T14:10:41.931Z,55.1
2022-07-26T14:16:41.992Z,54.1
2022-07-26T14:22:41.916Z,52.8
2022-07-26T14:28:41.932Z,52.5
2022-07-26T14:34:41.942Z,53
2022-07-26T14:40:41.936Z,51.8
2022-07-26T14:46:41.934Z,50.7
2022-07-26T14:52:41.962Z,51.1
2022-07-26T14:58:41.943Z,51.2
2022-07-26T15:04:41.932Z,50.8
2022-07-26T15:10:42.063Z,53.6
2022-07-26T15:16:42.109Z,49.8
2022-07-26T15:22:41.941Z,50.1
2022-07-26T15:28:41.947Z,50.7
2022-07-26T15:34:41.973Z,52.3
2022-07-26T15:40:41.943Z,55.9
2022-07-26T15:46:41.948Z,57.4
2022-07-26T15:52:41.977Z,60.3
2022-07-26T15:58:41.964Z,60.8
2022-07-26T16:04:41.982Z,62.1
2022-07-26T16:10:41.954Z,61.7
2022-07-26T16:16:42.062Z,62.7
2022-07-26T16:22:42.126Z,61.8
2022-07-26T16:28:41.960Z,61.5
2022-07-26T16:34:41.957Z,60.8
2022-07-26T16:40:41.947Z,62.1
2022-07-26T16:46:42.017Z,60.3
2022-07-26T16:52:41.971Z,60.4
2022-07-26T16:58:41.971Z,60.9
2022-07-26T17:04:41.963Z,60.9
2022-07-26T17:10:41.969Z,61.9
2022-07-26T17:16:42.103Z,63.4
2022-07-26T17:22:41.968Z,61.5
2022-07-26T17:28:41.972Z,62.8
2022-07-26T17:34:42.015Z,63.2
2022-07-26T17:40:41.964Z,63.6
2022-07-26T17:46:42.006Z,64
2022-07-26T17:52:41.980Z,64.1
2022-07-26T17:58:41.975Z,63.9
2022-07-26T18:04:41.994Z,64.3
2022-07-26T18:10:41.988Z,63.7
2022-07-26T18:16:42.020Z,64.5
2022-07-26T18:22:41.993Z,63
2022-07-26T18:28:41.964Z,63
2022-07-26T18:34:41.978Z,62.9
2022-07-26T18:40:41.982Z,64.2
2022-07-26T18:46:42.121Z,63.4
2022-07-26T18:52:41.989Z,62.6
2022-07-26T18:58:41.993Z,63.7
2022-07-26T19:04:41.979Z,64.3
2022-07-26T19:10:41.980Z,65.1
2022-07-26T19:16:41.997Z,65.4
2022-07-26T19:22:41.982Z,65
2022-07-26T19:28:41.991Z,65.5
2022-07-26T19:34:42.022Z,66
2022-07-26T19:40:42.036Z,66.4
2022-07-26T19:46:42.024Z,65.9
2022-07-26T19:52:41.992Z,66.3
2022-07-26T19:58:41.997Z,67.1
2022-07-26T20:04:45.883Z,67.4
2022-07-26T20:10:42.024Z,68.5
2022-07-26T20:16:42.124Z,68.1
2022-07-26T20:22:41.991Z,68.7
2022-07-26T20:28:42.001Z,69.3
2022-07-26T20:34:42.020Z,69.6
2022-07-26T20:40:41.996Z,69.8
2022-07-26T20:46:41.991Z,70.1
2022-07-26T20:52:42.008Z,70.9
2022-07-26T20:58:41.999Z,71.2
2022-07-26T21:04:42.010Z,72.8
2022-07-26T21:10:41.987Z,72.7
2022-07-26T21:16:42.089Z,72.8
2022-07-26T21:22:42.006Z,74
2022-07-26T21:28:42.027Z,74
2022-07-26T21:34:42.092Z,73.2
2022-07-26T21:40:42.016Z,73.5
2022-07-26T21:46:42.103Z,74.4
2022-07-26T21:52:42.013Z,74.1
2022-07-26T21:58:42.011Z,73.2
2022-07-26T22:04:42.013Z,73.8
2022-07-26T22:10:44.229Z,73.8
2022-07-26T22:16:42.114Z,73.7
2022-07-26T22:22:42.013Z,74.8
2022-07-26T22:28:42.014Z,75
2022-07-26T22:34:42.015Z,75.5
2022-07-26T22:40:42.014Z,75.3
2022-07-26T22:46:42.023Z,75.5
2022-07-26T22:52:42.040Z,74.6
2022-07-26T22:58:42.045Z,75.4
2022-07-26T23:04:42.027Z,74.8
2022-07-26T23:10:42.037Z,75.7
2022-07-26T23:16:42.231Z,74.7
2022-07-26T23:22:42.028Z,74.7
2022-07-26T23:28:42.028Z,73.8
2022-07-26T23:34:42.052Z,73.8
2022-07-26T23:40:42.029Z,73.4
2022-07-26T23:46:42.130Z,72.2
2022-07-26T23:52:42.042Z,72.6
2022-07-26T23:58:42.017Z,73.3
